sensor_id;sensor_type;location;lat;lon;timestamp;P1;durP1;ratioP1;P2;durP2;ratioP2
17265;SDS011;8749;47.076;15.412;2022-07-01T00:00:17;12.88;;;11.50;;
17265;SDS011;8749;47.076;15.412;2022-07-01T00:02:45;12.98;;;11.45;;
17265;SDS011;8749;47.076;15.412;2022-07-01T00:05:12;12.93;;;11.43;;
17265;SDS011;8749;47.076;15.412;2022-07-01T00:07:39;13.88;;;11.70;;
17265;SDS011;8749;47.076;15.412;2022-07-01T00:10:07;14.63;;;11.40;;
17265;SDS011;8749;47.076;15.412;2022-07-01T00:12:34;11.85;;;10.65;;
17265;SDS011;8749;47.076;15.412;2022-07-01T00:15:02;12.30;;;11.10;;
17265;SDS011;8749;47.076;15.412;2022-07-01T00:17:29;13.43;;;11.88;;
17265;SDS011;8749;47.076;15.412;2022-07-01T00:19:58;13.20;;;11.30;;
17265;SDS011;8749;47.076;15.412;2022-07-01T00:22:25;12.93;;;11.57;;
17265;SDS011;8749;47.076;15.412;2022-07-01T00:24:53;13.02;;;11.82;;
17265;SDS011;8749;47.076;15.412;2022-07-01T00:27:19;12.85;;;11.50;;
17265;SDS011;8749;47.076;15.412;2022-07-01T00:29:47;14.93;;;11.95;;
17265;SDS011;8749;47.076;15.412;2022-07-01T00:32:14;14.63;;;12.15;;
17265;SDS011;8749;47.076;15.412;2022-07-01T00:34:41;14.82;;;12.38;;
17265;SDS011;8749;47.076;15.412;2022-07-01T00:37:09;15.25;;;12.57;;
17265;SDS011;8749;47.076;15.412;2022-07-01T00:39:36;17.83;;;12.25;;
17265;SDS011;8749;47.076;15.412;2022-07-01T00:42:03;15.10;;;12.15;;
17265;SDS011;8749;47.076;15.412;2022-07-01T00:44:31;16.92;;;15.10;;
17265;SDS011;8749;47.076;15.412;2022-07-01T00:46:59;18.80;;;14.70;;
17265;SDS011;8749;47.076;15.412;2022-07-01T00:49:28;14.90;;;12.95;;
17265;SDS011;8749;47.076;15.412;2022-07-01T00:51:55;14.52;;;12.20;;
17265;SDS011;8749;47.076;15.412;2022-07-01T00:54:24;13.85;;;12.43;;
17265;SDS011;8749;47.076;15.412;2022-07-01T00:56:52;14.90;;;12.55;;
17265;SDS011;8749;47.076;15.412;2022-07-01T00:59:20;16.10;;;13.05;;
17265;SDS011;8749;47.076;15.412;2022-07-01T01:01:46;13.30;;;12.02;;
17265;SDS011;8749;47.076;15.412;2022-07-01T01:04:13;15.00;;;12.70;;
17265;SDS011;8749;47.076;15.412;2022-07-01T01:06:40;14.43;;;12.90;;
17265;SDS011;8749;47.076;15.412;2022-07-01T01:09:08;15.60;;;12.52;;
17265;SDS011;8749;47.076;15.412;2022-07-01T01:11:36;14.10;;;12.63;;
17265;SDS011;8749;47.076;15.412;2022-07-01T01:14:03;13.85;;;12.45;;
17265;SDS011;8749;47.076;15.412;2022-07-01T01:16:30;14.75;;;12.20;;
17265;SDS011;8749;47.076;15.412;2022-07-01T01:18:59;15.55;;;12.20;;
17265;SDS011;8749;47.076;15.412;2022-07-01T01:21:28;19.45;;;13.00;;
17265;SDS011;8749;47.076;15.412;2022-07-01T01:23:56;13.43;;;11.65;;
17265;SDS011;8749;47.076;15.412;2022-07-01T01:26:24;17.67;;;12.63;;
17265;SDS011;8749;47.076;15.412;2022-07-01T01:28:52;13.48;;;12.15;;
17265;SDS011;8749;47.076;15.412;2022-07-01T01:31:26;13.48;;;12.02;;
17265;SDS011;8749;47.076;15.412;2022-07-01T01:33:54;15.88;;;12.45;;
17265;SDS011;8749;47.076;15.412;2022-07-01T01:36:21;16.88;;;12.15;;
17265;SDS011;8749;47.076;15.412;2022-07-01T01:38:50;14.77;;;12.45;;
17265;SDS011;8749;47.076;15.412;2022-07-01T01:41:17;14.00;;;12.40;;
17265;SDS011;8749;47.076;15.412;2022-07-01T01:43:43;15.02;;;12.68;;
17265;SDS011;8749;47.076;15.412;2022-07-01T01:46:12;14.48;;;12.40;;
17265;SDS011;8749;47.076;15.412;2022-07-01T01:48:39;13.75;;;12.32;;
17265;SDS011;8749;47.076;15.412;2022-07-01T01:51:06;12.18;;;11.05;;
17265;SDS011;8749;47.076;15.412;2022-07-01T01:53:33;12.77;;;11.48;;
17265;SDS011;8749;47.076;15.412;2022-07-01T01:56:01;13.68;;;12.23;;
17265;SDS011;8749;47.076;15.412;2022-07-01T01:58:28;13.02;;;11.48;;
17265;SDS011;8749;47.076;15.412;2022-07-01T02:00:55;13.60;;;12.00;;
17265;SDS011;8749;47.076;15.412;2022-07-01T02:03:22;12.75;;;11.55;;
17265;SDS011;8749;47.076;15.412;2022-07-01T02:05:49;12.95;;;11.52;;
17265;SDS011;8749;47.076;15.412;2022-07-01T02:08:16;13.60;;;11.63;;
17265;SDS011;8749;47.076;15.412;2022-07-01T02:10:43;12.55;;;11.35;;
17265;SDS011;8749;47.076;15.412;2022-07-01T02:13:11;13.73;;;11.93;;
17265;SDS011;8749;47.076;15.412;2022-07-01T02:15:38;16.33;;;12.25;;
17265;SDS011;8749;47.076;15.412;2022-07-01T02:18:05;14.02;;;11.38;;
17265;SDS011;8749;47.076;15.412;2022-07-01T02:20:32;14.07;;;12.13;;
17265;SDS011;8749;47.076;15.412;2022-07-01T02:22:59;13.02;;;11.70;;
17265;SDS011;8749;47.076;15.412;2022-07-01T02:25:26;13.02;;;11.68;;
17265;SDS011;8749;47.076;15.412;2022-07-01T02:27:53;13.55;;;11.93;;
17265;SDS011;8749;47.076;15.412;2022-07-01T02:30:21;14.10;;;12.52;;
17265;SDS011;8749;47.076;15.412;2022-07-01T02:32:48;13.55;;;11.98;;
17265;SDS011;8749;47.076;15.412;2022-07-01T02:35:15;13.38;;;12.05;;
17265;SDS011;8749;47.076;15.412;2022-07-01T02:37:42;13.35;;;11.95;;
17265;SDS011;8749;47.076;15.412;2022-07-01T02:40:09;13.70;;;12.18;;
17265;SDS011;8749;47.076;15.412;2022-07-01T02:42:37;14.90;;;12.00;;
17265;SDS011;8749;47.076;15.412;2022-07-01T02:45:05;15.25;;;12.00;;
17265;SDS011;8749;47.076;15.412;2022-07-01T02:47:35;13.32;;;12.02;;
17265;SDS011;8749;47.076;15.412;2022-07-01T02:50:03;13.52;;;11.68;;
17265;SDS011;8749;47.076;15.412;2022-07-01T02:52:30;14.27;;;12.00;;
17265;SDS011;8749;47.076;15.412;2022-07-01T02:54:59;14.85;;;12.27;;
17265;SDS011;8749;47.076;15.412;2022-07-01T02:57:26;13.95;;;12.65;;
17265;SDS011;8749;47.076;15.412;2022-07-01T02:59:53;14.98;;;12.93;;
17265;SDS011;8749;47.076;15.412;2022-07-01T03:02:20;15.00;;;12.70;;
17265;SDS011;8749;47.076;15.412;2022-07-01T03:04:50;13.93;;;12.43;;
17265;SDS011;8749;47.076;15.412;2022-07-01T03:07:18;14.38;;;12.85;;
17265;SDS011;8749;47.076;15.412;2022-07-01T03:09:45;16.23;;;13.23;;
17265;SDS011;8749;47.076;15.412;2022-07-01T03:12:13;16.63;;;12.98;;
17265;SDS011;8749;47.076;15.412;2022-07-01T03:14:54;14.82;;;13.32;;
17265;SDS011;8749;47.076;15.412;2022-07-01T03:17:22;13.70;;;12.30;;
17265;SDS011;8749;47.076;15.412;2022-07-01T03:19:50;15.25;;;13.10;;
17265;SDS011;8749;47.076;15.412;2022-07-01T03:22:19;13.55;;;12.20;;
17265;SDS011;8749;47.076;15.412;2022-07-01T03:24:46;14.93;;;11.95;;
17265;SDS011;8749;47.076;15.412;2022-07-01T03:27:14;13.25;;;11.98;;
17265;SDS011;8749;47.076;15.412;2022-07-01T03:29:41;13.75;;;12.10;;
17265;SDS011;8749;47.076;15.412;2022-07-01T03:32:08;14.38;;;11.65;;
17265;SDS011;8749;47.076;15.412;2022-07-01T03:34:36;14.70;;;12.15;;
17265;SDS011;8749;47.076;15.412;2022-07-01T03:37:05;13.40;;;11.90;;
17265;SDS011;8749;47.076;15.412;2022-07-01T03:39:33;13.38;;;12.07;;
17265;SDS011;8749;47.076;15.412;2022-07-01T03:42:02;16.23;;;12.10;;
17265;SDS011;8749;47.076;15.412;2022-07-01T03:44:30;12.77;;;11.57;;
17265;SDS011;8749;47.076;15.412;2022-07-01T03:46:57;14.98;;;12.38;;
17265;SDS011;8749;47.076;15.412;2022-07-01T03:49:24;15.00;;;12.50;;
17265;SDS011;8749;47.076;15.412;2022-07-01T03:51:51;14.45;;;12.30;;
17265;SDS011;8749;47.076;15.412;2022-07-01T03:54:20;35.63;;;29.77;;
17265;SDS011;8749;47.076;15.412;2022-07-01T03:56:55;34.08;;;26.15;;
17265;SDS011;8749;47.076;15.412;2022-07-01T03:59:22;16.90;;;13.90;;
17265;SDS011;8749;47.076;15.412;2022-07-01T04:01:49;26.98;;;20.80;;
17265;SDS011;8749;47.076;15.412;2022-07-01T04:04:16;17.90;;;14.18;;
17265;SDS011;8749;47.076;15.412;2022-07-01T04:06:43;16.10;;;14.40;;
17265;SDS011;8749;47.076;15.412;2022-07-01T04:09:11;18.33;;;14.13;;
17265;SDS011;8749;47.076;15.412;2022-07-01T04:11:40;15.00;;;13.57;;
17265;SDS011;8749;47.076;15.412;2022-07-01T04:14:07;19.15;;;14.48;;
17265;SDS011;8749;47.076;15.412;2022-07-01T04:16:35;17.25;;;14.25;;
17265;SDS011;8749;47.076;15.412;2022-07-01T04:19:02;16.83;;;15.05;;
17265;SDS011;8749;47.076;15.412;2022-07-01T04:21:30;20.10;;;17.90;;
17265;SDS011;8749;47.076;15.412;2022-07-01T04:24:14;17.90;;;14.80;;
17265;SDS011;8749;47.076;15.412;2022-07-01T04:26:43;18.23;;;15.40;;
17265;SDS011;8749;47.076;15.412;2022-07-01T04:29:10;19.48;;;14.90;;
17265;SDS011;8749;47.076;15.412;2022-07-01T04:31:38;19.05;;;15.30;;
17265;SDS011;8749;47.076;15.412;2022-07-01T04:34:05;17.25;;;15.40;;
17265;SDS011;8749;47.076;15.412;2022-07-01T04:36:34;19.83;;;15.57;;
17265;SDS011;8749;47.076;15.412;2022-07-01T04:39:01;18.10;;;16.20;;
17265;SDS011;8749;47.076;15.412;2022-07-01T04:41:29;19.48;;;17.38;;
17265;SDS011;8749;47.076;15.412;2022-07-01T04:44:15;27.83;;;21.85;;
17265;SDS011;8749;47.076;15.412;2022-07-01T04:46:43;25.63;;;21.08;;
17265;SDS011;8749;47.076;15.412;2022-07-01T04:49:10;20.20;;;16.42;;
17265;SDS011;8749;47.076;15.412;2022-07-01T04:51:37;19.52;;;17.10;;
17265;SDS011;8749;47.076;15.412;2022-07-01T04:54:05;17.65;;;15.25;;
17265;SDS011;8749;47.076;15.412;2022-07-01T04:56:33;18.10;;;15.63;;
17265;SDS011;8749;47.076;15.412;2022-07-01T04:59:01;17.80;;;14.88;;
17265;SDS011;8749;47.076;15.412;2022-07-01T05:01:30;16.42;;;14.73;;
17265;SDS011;8749;47.076;15.412;2022-07-01T05:03:57;19.10;;;16.08;;
17265;SDS011;8749;47.076;15.412;2022-07-01T05:06:25;19.15;;;16.55;;
17265;SDS011;8749;47.076;15.412;2022-07-01T05:08:52;20.42;;;17.75;;
17265;SDS011;8749;47.076;15.412;2022-07-01T05:11:19;19.15;;;16.23;;
17265;SDS011;8749;47.076;15.412;2022-07-01T05:13:46;17.45;;;15.55;;
17265;SDS011;8749;47.076;15.412;2022-07-01T05:16:12;20.15;;;16.05;;
17265;SDS011;8749;47.076;15.412;2022-07-01T05:18:41;20.23;;;15.52;;
17265;SDS011;8749;47.076;15.412;2022-07-01T05:21:25;28.13;;;22.13;;
17265;SDS011;8749;47.076;15.412;2022-07-01T05:24:10;22.00;;;17.50;;
17265;SDS011;8749;47.076;15.412;2022-07-01T05:26:37;19.77;;;15.85;;
17265;SDS011;8749;47.076;15.412;2022-07-01T05:29:04;20.95;;;16.90;;
17265;SDS011;8749;47.076;15.412;2022-07-01T05:31:31;19.27;;;15.70;;
17265;SDS011;8749;47.076;15.412;2022-07-01T05:33:59;19.67;;;15.73;;
17265;SDS011;8749;47.076;15.412;2022-07-01T05:36:26;22.58;;;15.80;;
17265;SDS011;8749;47.076;15.412;2022-07-01T05:38:53;17.40;;;15.52;;
17265;SDS011;8749;47.076;15.412;2022-07-01T05:41:20;18.55;;;14.13;;
17265;SDS011;8749;47.076;15.412;2022-07-01T05:43:48;15.77;;;14.13;;
17265;SDS011;8749;47.076;15.412;2022-07-01T05:46:15;17.02;;;14.38;;
17265;SDS011;8749;47.076;15.412;2022-07-01T05:48:41;20.50;;;14.27;;
17265;SDS011;8749;47.076;15.412;2022-07-01T05:51:10;19.92;;;14.30;;
17265;SDS011;8749;47.076;15.412;2022-07-01T05:53:37;17.60;;;14.57;;
17265;SDS011;8749;47.076;15.412;2022-07-01T05:56:04;15.63;;;13.52;;
17265;SDS011;8749;47.076;15.412;2022-07-01T05:58:31;17.60;;;13.10;;
17265;SDS011;8749;47.076;15.412;2022-07-01T06:00:58;17.60;;;13.48;;
17265;SDS011;8749;47.076;15.412;2022-07-01T06:03:24;24.65;;;16.08;;
17265;SDS011;8749;47.076;15.412;2022-07-01T06:05:51;23.02;;;18.25;;
17265;SDS011;8749;47.076;15.412;2022-07-01T06:08:20;24.50;;;17.60;;
17265;SDS011;8749;47.076;15.412;2022-07-01T06:10:47;21.25;;;14.98;;
17265;SDS011;8749;47.076;15.412;2022-07-01T06:13:13;17.98;;;14.30;;
17265;SDS011;8749;47.076;15.412;2022-07-01T06:15:41;19.02;;;13.88;;
17265;SDS011;8749;47.076;15.412;2022-07-01T06:18:08;19.73;;;13.23;;
17265;SDS011;8749;47.076;15.412;2022-07-01T06:20:35;14.20;;;12.75;;
17265;SDS011;8749;47.076;15.412;2022-07-01T06:23:02;15.02;;;12.30;;
17265;SDS011;8749;47.076;15.412;2022-07-01T06:25:30;16.20;;;13.30;;
17265;SDS011;8749;47.076;15.412;2022-07-01T06:27:57;14.68;;;12.45;;
17265;SDS011;8749;47.076;15.412;2022-07-01T06:30:24;14.07;;;12.55;;
17265;SDS011;8749;47.076;15.412;2022-07-01T06:32:51;16.08;;;13.23;;
17265;SDS011;8749;47.076;15.412;2022-07-01T06:35:18;17.35;;;12.90;;
17265;SDS011;8749;47.076;15.412;2022-07-01T06:37:45;15.93;;;12.20;;
17265;SDS011;8749;47.076;15.412;2022-07-01T06:40:12;18.45;;;12.80;;
17265;SDS011;8749;47.076;15.412;2022-07-01T06:42:40;17.42;;;12.63;;
17265;SDS011;8749;47.076;15.412;2022-07-01T06:45:07;18.83;;;12.43;;
17265;SDS011;8749;47.076;15.412;2022-07-01T06:47:34;16.90;;;11.45;;
17265;SDS011;8749;47.076;15.412;2022-07-01T06:50:02;17.48;;;12.27;;
17265;SDS011;8749;47.076;15.412;2022-07-01T06:52:30;16.60;;;11.77;;
17265;SDS011;8749;47.076;15.412;2022-07-01T06:54:57;18.27;;;11.77;;
17265;SDS011;8749;47.076;15.412;2022-07-01T06:57:24;15.68;;;12.02;;
17265;SDS011;8749;47.076;15.412;2022-07-01T06:59:52;17.45;;;12.30;;
17265;SDS011;8749;47.076;15.412;2022-07-01T07:02:19;15.75;;;11.90;;
17265;SDS011;8749;47.076;15.412;2022-07-01T07:04:46;12.90;;;11.05;;
17265;SDS011;8749;47.076;15.412;2022-07-01T07:07:13;16.35;;;11.52;;
17265;SDS011;8749;47.076;15.412;2022-07-01T07:09:39;12.75;;;11.43;;
17265;SDS011;8749;47.076;15.412;2022-07-01T07:12:07;15.68;;;10.80;;
17265;SDS011;8749;47.076;15.412;2022-07-01T07:14:35;14.95;;;11.02;;
17265;SDS011;8749;47.076;15.412;2022-07-01T07:17:03;15.38;;;11.65;;
17265;SDS011;8749;47.076;15.412;2022-07-01T07:19:30;17.35;;;11.98;;
17265;SDS011;8749;47.076;15.412;2022-07-01T07:21:57;19.27;;;11.10;;
17265;SDS011;8749;47.076;15.412;2022-07-01T07:24:24;13.38;;;10.77;;
17265;SDS011;8749;47.076;15.412;2022-07-01T07:26:51;13.32;;;11.15;;
17265;SDS011;8749;47.076;15.412;2022-07-01T07:29:18;15.68;;;10.55;;
17265;SDS011;8749;47.076;15.412;2022-07-01T07:31:44;12.43;;;10.85;;
17265;SDS011;8749;47.076;15.412;2022-07-01T07:34:13;13.02;;;9.90;;
17265;SDS011;8749;47.076;15.412;2022-07-01T07:36:40;17.48;;;13.57;;
17265;SDS011;8749;47.076;15.412;2022-07-01T07:39:07;13.85;;;12.35;;
17265;SDS011;8749;47.076;15.412;2022-07-01T07:41:34;12.68;;;10.82;;
17265;SDS011;8749;47.076;15.412;2022-07-01T07:44:00;13.27;;;11.23;;
17265;SDS011;8749;47.076;15.412;2022-07-01T07:46:27;13.65;;;11.35;;
17265;SDS011;8749;47.076;15.412;2022-07-01T07:48:54;13.10;;;11.00;;
17265;SDS011;8749;47.076;15.412;2022-07-01T07:51:23;12.90;;;11.52;;
17265;SDS011;8749;47.076;15.412;2022-07-01T07:53:49;15.88;;;10.93;;
17265;SDS011;8749;47.076;15.412;2022-07-01T07:56:16;19.58;;;11.30;;
17265;SDS011;8749;47.076;15.412;2022-07-01T07:58:43;14.30;;;10.82;;
17265;SDS011;8749;47.076;15.412;2022-07-01T08:01:10;15.55;;;10.88;;
17265;SDS011;8749;47.076;15.412;2022-07-01T08:03:37;14.23;;;11.20;;
17265;SDS011;8749;47.076;15.412;2022-07-01T08:06:04;16.75;;;11.02;;
17265;SDS011;8749;47.076;15.412;2022-07-01T08:08:33;14.88;;;11.07;;
17265;SDS011;8749;47.076;15.412;2022-07-01T08:10:59;12.48;;;10.65;;
17265;SDS011;8749;47.076;15.412;2022-07-01T08:13:26;15.63;;;11.45;;
17265;SDS011;8749;47.076;15.412;2022-07-01T08:15:54;14.90;;;11.00;;
17265;SDS011;8749;47.076;15.412;2022-07-01T08:18:21;13.32;;;10.85;;
17265;SDS011;8749;47.076;15.412;2022-07-01T08:20:48;13.85;;;10.88;;
17265;SDS011;8749;47.076;15.412;2022-07-01T08:23:17;12.35;;;10.00;;
17265;SDS011;8749;47.076;15.412;2022-07-01T08:25:46;11.02;;;9.77;;
17265;SDS011;8749;47.076;15.412;2022-07-01T08:28:13;11.85;;;10.18;;
17265;SDS011;8749;47.076;15.412;2022-07-01T08:30:40;13.50;;;9.70;;
17265;SDS011;8749;47.076;15.412;2022-07-01T08:33:07;13.95;;;10.05;;
17265;SDS011;8749;47.076;15.412;2022-07-01T08:35:35;26.02;;;18.65;;
17265;SDS011;8749;47.076;15.412;2022-07-01T08:38:03;24.70;;;20.00;;
17265;SDS011;8749;47.076;15.412;2022-07-01T08:40:30;13.88;;;10.82;;
17265;SDS011;8749;47.076;15.412;2022-07-01T08:42:59;13.00;;;10.27;;
17265;SDS011;8749;47.076;15.412;2022-07-01T08:45:27;12.27;;;9.50;;
17265;SDS011;8749;47.076;15.412;2022-07-01T08:47:56;12.50;;;9.82;;
17265;SDS011;8749;47.076;15.412;2022-07-01T08:50:26;10.30;;;9.30;;
17265;SDS011;8749;47.076;15.412;2022-07-01T08:52:54;12.75;;;9.60;;
17265;SDS011;8749;47.076;15.412;2022-07-01T08:55:21;11.85;;;10.02;;
17265;SDS011;8749;47.076;15.412;2022-07-01T08:57:49;11.50;;;9.52;;
17265;SDS011;8749;47.076;15.412;2022-07-01T09:00:18;12.55;;;9.88;;
17265;SDS011;8749;47.076;15.412;2022-07-01T09:02:49;14.73;;;10.25;;
17265;SDS011;8749;47.076;15.412;2022-07-01T09:05:17;14.20;;;12.88;;
17265;SDS011;8749;47.076;15.412;2022-07-01T09:07:44;14.55;;;11.30;;
17265;SDS011;8749;47.076;15.412;2022-07-01T09:10:12;13.45;;;10.13;;
17265;SDS011;8749;47.076;15.412;2022-07-01T09:12:40;12.10;;;10.30;;
17265;SDS011;8749;47.076;15.412;2022-07-01T09:15:22;11.02;;;9.82;;
17265;SDS011;8749;47.076;15.412;2022-07-01T09:17:54;11.98;;;9.90;;
17265;SDS011;8749;47.076;15.412;2022-07-01T09:20:23;11.77;;;9.43;;
17265;SDS011;8749;47.076;15.412;2022-07-01T09:23:01;15.75;;;9.35;;
17265;SDS011;8749;47.076;15.412;2022-07-01T09:25:30;11.40;;;10.02;;
17265;SDS011;8749;47.076;15.412;2022-07-01T09:28:06;12.65;;;9.43;;
17265;SDS011;8749;47.076;15.412;2022-07-01T09:30:36;15.20;;;9.82;;
17265;SDS011;8749;47.076;15.412;2022-07-01T09:33:07;10.38;;;9.00;;
17265;SDS011;8749;47.076;15.412;2022-07-01T09:35:38;11.02;;;8.93;;
17265;SDS011;8749;47.076;15.412;2022-07-01T09:38:06;15.43;;;9.35;;
17265;SDS011;8749;47.076;15.412;2022-07-01T09:40:45;11.70;;;9.35;;
17265;SDS011;8749;47.076;15.412;2022-07-01T09:43:17;12.18;;;9.18;;
17265;SDS011;8749;47.076;15.412;2022-07-01T09:45:51;9.57;;;8.57;;
17265;SDS011;8749;47.076;15.412;2022-07-01T09:48:20;10.32;;;8.13;;
17265;SDS011;8749;47.076;15.412;2022-07-01T09:50:48;10.65;;;8.15;;
17265;SDS011;8749;47.076;15.412;2022-07-01T09:53:15;12.05;;;8.13;;
17265;SDS011;8749;47.076;15.412;2022-07-01T09:55:42;12.70;;;8.15;;
17265;SDS011;8749;47.076;15.412;2022-07-01T09:58:09;9.13;;;8.07;;
17265;SDS011;8749;47.076;15.412;2022-07-01T10:00:36;11.25;;;7.50;;
17265;SDS011;8749;47.076;15.412;2022-07-01T10:03:05;9.80;;;7.40;;
17265;SDS011;8749;47.076;15.412;2022-07-01T10:05:35;10.90;;;7.40;;
17265;SDS011;8749;47.076;15.412;2022-07-01T10:08:10;9.60;;;7.78;;
17265;SDS011;8749;47.076;15.412;2022-07-01T10:11:01;10.57;;;7.30;;
17265;SDS011;8749;47.076;15.412;2022-07-01T10:13:42;8.63;;;7.38;;
17265;SDS011;8749;47.076;15.412;2022-07-01T10:16:09;8.55;;;7.35;;
17265;SDS011;8749;47.076;15.412;2022-07-01T10:18:38;8.98;;;7.35;;
17265;SDS011;8749;47.076;15.412;2022-07-01T10:21:05;10.52;;;7.38;;
17265;SDS011;8749;47.076;15.412;2022-07-01T10:23:37;7.97;;;7.28;;
17265;SDS011;8749;47.076;15.412;2022-07-01T10:26:04;10.88;;;7.68;;
17265;SDS011;8749;47.076;15.412;2022-07-01T10:28:40;7.65;;;6.80;;
17265;SDS011;8749;47.076;15.412;2022-07-01T10:31:09;8.15;;;7.30;;
17265;SDS011;8749;47.076;15.412;2022-07-01T10:33:43;7.68;;;6.72;;
17265;SDS011;8749;47.076;15.412;2022-07-01T10:36:13;7.30;;;6.57;;
17265;SDS011;8749;47.076;15.412;2022-07-01T10:41:36;11.48;;;7.65;;
17265;SDS011;8749;47.076;15.412;2022-07-01T10:44:05;12.88;;;7.28;;
17265;SDS011;8749;47.076;15.412;2022-07-01T10:46:39;8.93;;;7.07;;
17265;SDS011;8749;47.076;15.412;2022-07-01T10:49:10;9.23;;;7.30;;
17265;SDS011;8749;47.076;15.412;2022-07-01T10:51:42;9.57;;;6.97;;
17265;SDS011;8749;47.076;15.412;2022-07-01T10:54:12;8.45;;;7.65;;
17265;SDS011;8749;47.076;15.412;2022-07-01T10:56:39;8.23;;;7.03;;
17265;SDS011;8749;47.076;15.412;2022-07-01T10:59:06;16.65;;;6.57;;
17265;SDS011;8749;47.076;15.412;2022-07-01T11:01:34;8.75;;;7.25;;
17265;SDS011;8749;47.076;15.412;2022-07-01T11:04:02;9.23;;;7.47;;
17265;SDS011;8749;47.076;15.412;2022-07-01T11:06:30;10.77;;;7.40;;
17265;SDS011;8749;47.076;15.412;2022-07-01T11:09:04;11.25;;;8.00;;
17265;SDS011;8749;47.076;15.412;2022-07-01T11:11:30;7.85;;;6.22;;
17265;SDS011;8749;47.076;15.412;2022-07-01T11:13:59;10.63;;;5.72;;
17265;SDS011;8749;47.076;15.412;2022-07-01T11:16:27;6.50;;;5.63;;
17265;SDS011;8749;47.076;15.412;2022-07-01T11:18:56;7.15;;;5.30;;
17265;SDS011;8749;47.076;15.412;2022-07-01T11:21:23;7.65;;;5.30;;
17265;SDS011;8749;47.076;15.412;2022-07-01T11:23:54;6.03;;;4.95;;
17265;SDS011;8749;47.076;15.412;2022-07-01T11:26:22;6.82;;;5.10;;
17265;SDS011;8749;47.076;15.412;2022-07-01T11:28:50;9.93;;;5.10;;
17265;SDS011;8749;47.076;15.412;2022-07-01T11:31:26;6.85;;;4.78;;
17265;SDS011;8749;47.076;15.412;2022-07-01T11:33:56;8.50;;;4.22;;
17265;SDS011;8749;47.076;15.412;2022-07-01T11:36:23;5.75;;;4.22;;
17265;SDS011;8749;47.076;15.412;2022-07-01T11:39:09;7.72;;;4.10;;
17265;SDS011;8749;47.076;15.412;2022-07-01T11:41:53;6.18;;;3.90;;
17265;SDS011;8749;47.076;15.412;2022-07-01T11:44:30;4.65;;;3.60;;
17265;SDS011;8749;47.076;15.412;2022-07-01T11:46:58;5.93;;;4.15;;
17265;SDS011;8749;47.076;15.412;2022-07-01T11:49:26;6.82;;;4.05;;
17265;SDS011;8749;47.076;15.412;2022-07-01T11:51:56;10.40;;;4.15;;
17265;SDS011;8749;47.076;15.412;2022-07-01T11:54:25;6.93;;;3.80;;
17265;SDS011;8749;47.076;15.412;2022-07-01T11:56:52;5.38;;;4.25;;
17265;SDS011;8749;47.076;15.412;2022-07-01T11:59:19;5.35;;;4.18;;
17265;SDS011;8749;47.076;15.412;2022-07-01T12:01:50;7.43;;;3.90;;
17265;SDS011;8749;47.076;15.412;2022-07-01T12:04:19;5.80;;;4.00;;
17265;SDS011;8749;47.076;15.412;2022-07-01T12:06:47;6.10;;;3.80;;
17265;SDS011;8749;47.076;15.412;2022-07-01T12:09:14;6.55;;;3.90;;
17265;SDS011;8749;47.076;15.412;2022-07-01T12:11:44;7.93;;;3.90;;
17265;SDS011;8749;47.076;15.412;2022-07-01T12:14:18;4.15;;;3.75;;
17265;SDS011;8749;47.076;15.412;2022-07-01T12:16:46;4.70;;;4.13;;
17265;SDS011;8749;47.076;15.412;2022-07-01T12:19:13;6.10;;;3.50;;
17265;SDS011;8749;47.076;15.412;2022-07-01T12:21:48;5.50;;;3.63;;
17265;SDS011;8749;47.076;15.412;2022-07-01T12:24:17;6.45;;;3.70;;
17265;SDS011;8749;47.076;15.412;2022-07-01T12:26:49;5.43;;;3.70;;
17265;SDS011;8749;47.076;15.412;2022-07-01T12:29:20;6.45;;;3.50;;
17265;SDS011;8749;47.076;15.412;2022-07-01T12:31:55;4.43;;;3.65;;
17265;SDS011;8749;47.076;15.412;2022-07-01T12:34:23;4.32;;;3.60;;
17265;SDS011;8749;47.076;15.412;2022-07-01T12:37:02;7.82;;;5.10;;
17265;SDS011;8749;47.076;15.412;2022-07-01T12:39:29;7.43;;;4.18;;
17265;SDS011;8749;47.076;15.412;2022-07-01T12:41:57;7.50;;;4.05;;
17265;SDS011;8749;47.076;15.412;2022-07-01T12:44:25;7.05;;;3.97;;
17265;SDS011;8749;47.076;15.412;2022-07-01T12:46:53;6.03;;;4.13;;
17265;SDS011;8749;47.076;15.412;2022-07-01T12:49:21;5.30;;;4.05;;
17265;SDS011;8749;47.076;15.412;2022-07-01T12:51:49;7.75;;;3.85;;
17265;SDS011;8749;47.076;15.412;2022-07-01T12:57:04;5.32;;;4.05;;
17265;SDS011;8749;47.076;15.412;2022-07-01T12:59:31;5.47;;;3.83;;
17265;SDS011;8749;47.076;15.412;2022-07-01T13:01:58;9.57;;;4.20;;
17265;SDS011;8749;47.076;15.412;2022-07-01T13:04:26;5.70;;;4.00;;
17265;SDS011;8749;47.076;15.412;2022-07-01T13:06:54;5.68;;;3.85;;
17265;SDS011;8749;47.076;15.412;2022-07-01T13:09:21;5.53;;;4.15;;
17265;SDS011;8749;47.076;15.412;2022-07-01T13:11:48;5.32;;;3.72;;
17265;SDS011;8749;47.076;15.412;2022-07-01T13:14:17;4.65;;;3.70;;
17265;SDS011;8749;47.076;15.412;2022-07-01T13:16:43;6.88;;;4.18;;
17265;SDS011;8749;47.076;15.412;2022-07-01T13:19:10;8.23;;;4.60;;
17265;SDS011;8749;47.076;15.412;2022-07-01T13:21:37;4.60;;;3.67;;
17265;SDS011;8749;47.076;15.412;2022-07-01T13:24:04;5.82;;;3.58;;
17265;SDS011;8749;47.076;15.412;2022-07-01T13:26:31;4.65;;;3.92;;
17265;SDS011;8749;47.076;15.412;2022-07-01T13:28:58;6.10;;;4.57;;
17265;SDS011;8749;47.076;15.412;2022-07-01T13:31:27;4.85;;;4.30;;
17265;SDS011;8749;47.076;15.412;2022-07-01T13:33:53;5.00;;;3.83;;
17265;SDS011;8749;47.076;15.412;2022-07-01T13:36:20;5.55;;;3.90;;
17265;SDS011;8749;47.076;15.412;2022-07-01T13:38:47;9.02;;;3.92;;
17265;SDS011;8749;47.076;15.412;2022-07-01T13:41:14;5.25;;;4.60;;
17265;SDS011;8749;47.076;15.412;2022-07-01T13:43:41;5.35;;;4.40;;
17265;SDS011;8749;47.076;15.412;2022-07-01T13:46:08;5.70;;;3.90;;
17265;SDS011;8749;47.076;15.412;2022-07-01T13:48:36;7.80;;;3.85;;
17265;SDS011;8749;47.076;15.412;2022-07-01T13:51:03;7.25;;;3.60;;
17265;SDS011;8749;47.076;15.412;2022-07-01T13:53:30;4.50;;;3.65;;
17265;SDS011;8749;47.076;15.412;2022-07-01T13:55:57;6.05;;;3.83;;
17265;SDS011;8749;47.076;15.412;2022-07-01T13:58:24;5.10;;;3.55;;
17265;SDS011;8749;47.076;15.412;2022-07-01T14:00:51;6.63;;;5.20;;
17265;SDS011;8749;47.076;15.412;2022-07-01T14:03:18;6.25;;;4.05;;
17265;SDS011;8749;47.076;15.412;2022-07-01T14:05:46;4.68;;;3.97;;
17265;SDS011;8749;47.076;15.412;2022-07-01T14:08:13;5.53;;;3.22;;
17265;SDS011;8749;47.076;15.412;2022-07-01T14:10:40;5.75;;;3.47;;
17265;SDS011;8749;47.076;15.412;2022-07-01T14:13:07;5.90;;;3.47;;
17265;SDS011;8749;47.076;15.412;2022-07-01T14:15:34;6.72;;;3.67;;
17265;SDS011;8749;47.076;15.412;2022-07-01T14:18:01;5.85;;;3.30;;
17265;SDS011;8749;47.076;15.412;2022-07-01T14:20:28;7.55;;;3.65;;
17265;SDS011;8749;47.076;15.412;2022-07-01T14:22:57;5.30;;;3.42;;
17265;SDS011;8749;47.076;15.412;2022-07-01T14:25:24;7.68;;;3.38;;
17265;SDS011;8749;47.076;15.412;2022-07-01T14:27:51;6.00;;;3.40;;
17265;SDS011;8749;47.076;15.412;2022-07-01T14:30:18;3.67;;;3.28;;
17265;SDS011;8749;47.076;15.412;2022-07-01T14:32:45;6.00;;;3.22;;
17265;SDS011;8749;47.076;15.412;2022-07-01T14:35:12;7.72;;;6.90;;
17265;SDS011;8749;47.076;15.412;2022-07-01T14:37:38;5.55;;;3.72;;
17265;SDS011;8749;47.076;15.412;2022-07-01T14:40:09;7.05;;;3.33;;
17265;SDS011;8749;47.076;15.412;2022-07-01T14:42:37;4.45;;;3.00;;